sensor_id;sensor_type;location;lat;lon;timestamp;temperature;humidity
39345;DHT22;25061;51.954;6.996;2024-01-07T00:01:34;2.20;99.90
39345;DHT22;25061;51.954;6.996;2024-01-07T00:04:00;2.00;99.90
39345;DHT22;25061;51.954;6.996;2024-01-07T00:06:25;2.10;99.90
39345;DHT22;25061;51.954;6.996;2024-01-07T00:08:51;1.70;99.90
39345;DHT22;25061;51.954;6.996;2024-01-07T00:11:16;1.90;99.90
39345;DHT22;25061;51.954;6.996;2024-01-07T00:13:42;1.80;99.90
39345;DHT22;25061;51.954;6.996;2024-01-07T00:16:07;1.90;99.90
39345;DHT22;25061;51.954;6.996;2024-01-07T00:18:33;2.20;99.90
39345;DHT22;25061;51.954;6.996;2024-01-07T00:20:59;2.40;99.90
39345;DHT22;25061;51.954;6.996;2024-01-07T00:23:24;2.30;99.90
39345;DHT22;25061;51.954;6.996;2024-01-07T00:25:50;2.00;99.90
39345;DHT22;25061;51.954;6.996;2024-01-07T00:28:15;2.20;99.90
39345;DHT22;25061;51.954;6.996;2024-01-07T00:30:41;2.20;99.90
39345;DHT22;25061;51.954;6.996;2024-01-07T00:33:07;1.70;99.90
39345;DHT22;25061;51.954;6.996;2024-01-07T00:35:35;2.40;99.90
39345;DHT22;25061;51.954;6.996;2024-01-07T00:38:01;2.10;99.90
39345;DHT22;25061;51.954;6.996;2024-01-07T00:40:26;2.20;99.90
39345;DHT22;25061;51.954;6.996;2024-01-07T00:42:52;1.80;99.90
39345;DHT22;25061;51.954;6.996;2024-01-07T00:45:18;2.00;99.90
39345;DHT22;25061;51.954;6.996;2024-01-07T00:47:44;2.30;99.90
39345;DHT22;25061;51.954;6.996;2024-01-07T00:50:10;1.80;99.90
39345;DHT22;25061;51.954;6.996;2024-01-07T00:52:35;1.60;99.90
39345;DHT22;25061;51.954;6.996;2024-01-07T00:55:05;1.50;99.90
39345;DHT22;25061;51.954;6.996;2024-01-07T00:57:31;1.60;99.90
39345;DHT22;25061;51.954;6.996;2024-01-07T00:59:57;2.20;99.90
39345;DHT22;25061;51.954;6.996;2024-01-07T06:32:03;0.40;99.90
39345;DHT22;25061;51.954;6.996;2024-01-07T06:34:29;0.40;99.90
39345;DHT22;25061;51.954;6.996;2024-01-07T06:36:54;0.30;99.90
39345;DHT22;25061;51.954;6.996;2024-01-07T06:39:20;0.30;99.90
39345;DHT22;25061;51.954;6.996;2024-01-07T06:41:45;0.30;99.90
39345;DHT22;25061;51.954;6.996;2024-01-07T06:44:11;0.50;99.90
39345;DHT22;25061;51.954;6.996;2024-01-07T06:46:37;0.30;99.90
39345;DHT22;25061;51.954;6.996;2024-01-07T06:49:03;0.20;99.90
39345;DHT22;25061;51.954;6.996;2024-01-07T06:51:28;0.30;99.90
39345;DHT22;25061;51.954;6.996;2024-01-07T06:53:54;0.40;99.90
39345;DHT22;25061;51.954;6.996;2024-01-07T06:56:19;0.30;99.90
39345;DHT22;25061;51.954;6.996;2024-01-07T06:58:45;0.10;99.90
39345;DHT22;25061;51.954;6.996;2024-01-07T07:01:11;0.30;99.90
39345;DHT22;25061;51.954;6.996;2024-01-07T07:03:37;0.10;99.90
39345;DHT22;25061;51.954;6.996;2024-01-07T07:06:02;0.40;99.90
39345;DHT22;25061;51.954;6.996;2024-01-07T07:08:28;0.70;99.90
39345;DHT22;25061;51.954;6.996;2024-01-07T07:10:53;0.50;99.90
39345;DHT22;25061;51.954;6.996;2024-01-07T07:13:19;0.70;99.90
39345;DHT22;25061;51.954;6.996;2024-01-07T07:15:45;0.30;99.90
39345;DHT22;25061;51.954;6.996;2024-01-07T07:18:10;0.40;99.90
39345;DHT22;25061;51.954;6.996;2024-01-07T07:20:36;0.30;99.90
39345;DHT22;25061;51.954;6.996;2024-01-07T07:23:01;0.10;99.90
39345;DHT22;25061;51.954;6.996;2024-01-07T07:25:27;0.30;99.90
39345;DHT22;25061;51.954;6.996;2024-01-07T07:27:52;0.60;99.90
39345;DHT22;25061;51.954;6.996;2024-01-07T07:30:18;0.40;99.90
39345;DHT22;25061;51.954;6.996;2024-01-07T07:32:44;0.10;99.90
39345;DHT22;25061;51.954;6.996;2024-01-07T07:35:09;0.00;99.90
39345;DHT22;25061;51.954;6.996;2024-01-07T07:37:35;0.00;99.90
39345;DHT22;25061;51.954;6.996;2024-01-07T07:40:01;0.00;99.90
39345;DHT22;25061;51.954;6.996;2024-01-07T07:42:27;0.00;99.90
39345;DHT22;25061;51.954;6.996;2024-01-07T07:44:52;0.10;99.90
39345;DHT22;25061;51.954;6.996;2024-01-07T07:47:18;0.20;99.90
39345;DHT22;25061;51.954;6.996;2024-01-07T07:49:44;0.40;99.90
39345;DHT22;25061;51.954;6.996;2024-01-07T07:52:10;0.40;99.90
39345;DHT22;25061;51.954;6.996;2024-01-07T07:54:37;0.10;99.90
39345;DHT22;25061;51.954;6.996;2024-01-07T07:57:03;-0.10;99.90
39345;DHT22;25061;51.954;6.996;2024-01-07T07:59:29;-0.10;99.90
39345;DHT22;25061;51.954;6.996;2024-01-07T08:01:54;0.10;99.90
39345;DHT22;25061;51.954;6.996;2024-01-07T08:04:20;0.10;99.90
39345;DHT22;25061;51.954;6.996;2024-01-07T08:06:45;-0.10;99.90
39345;DHT22;25061;51.954;6.996;2024-01-07T08:09:11;-0.10;99.90
39345;DHT22;25061;51.954;6.996;2024-01-07T08:11:37;-0.10;99.90
39345;DHT22;25061;51.954;6.996;2024-01-07T08:14:02;-0.10;99.90
39345;DHT22;25061;51.954;6.996;2024-01-07T08:16:48;-0.20;99.90
39345;DHT22;25061;51.954;6.996;2024-01-07T08:19:14;0.10;99.90
39345;DHT22;25061;51.954;6.996;2024-01-07T08:21:39;-0.10;99.90
39345;DHT22;25061;51.954;6.996;2024-01-07T08:24:05;-0.10;99.90
39345;DHT22;25061;51.954;6.996;2024-01-07T08:26:31;-0.20;99.90
39345;DHT22;25061;51.954;6.996;2024-01-07T08:28:57;-0.20;99.90
39345;DHT22;25061;51.954;6.996;2024-01-07T08:31:22;-0.10;99.90
39345;DHT22;25061;51.954;6.996;2024-01-07T08:33:48;-0.20;99.90
39345;DHT22;25061;51.954;6.996;2024-01-07T08:36:13;-0.20;99.90
39345;DHT22;25061;51.954;6.996;2024-01-07T08:38:39;-0.30;99.90
39345;DHT22;25061;51.954;6.996;2024-01-07T08:41:04;-0.50;99.90
39345;DHT22;25061;51.954;6.996;2024-01-07T08:43:30;-0.50;99.90
39345;DHT22;25061;51.954;6.996;2024-01-07T08:45:56;-0.50;99.90
39345;DHT22;25061;51.954;6.996;2024-01-07T08:48:21;-0.40;99.90
39345;DHT22;25061;51.954;6.996;2024-01-07T08:50:47;-0.40;99.90
39345;DHT22;25061;51.954;6.996;2024-01-07T08:53:12;-0.30;99.90
39345;DHT22;25061;51.954;6.996;2024-01-07T08:55:38;-0.50;99.90
39345;DHT22;25061;51.954;6.996;2024-01-07T08:58:04;-0.60;99.90
39345;DHT22;25061;51.954;6.996;2024-01-07T09:00:29;-0.60;99.90
39345;DHT22;25061;51.954;6.996;2024-01-07T09:02:57;-0.30;99.90
39345;DHT22;25061;51.954;6.996;2024-01-07T09:05:22;-0.30;99.90
39345;DHT22;25061;51.954;6.996;2024-01-07T09:07:49;-0.40;99.90
39345;DHT22;25061;51.954;6.996;2024-01-07T09:10:15;-0.30;99.90
39345;DHT22;25061;51.954;6.996;2024-01-07T09:12:41;-0.20;99.90
39345;DHT22;25061;51.954;6.996;2024-01-07T09:15:07;-0.30;99.90
39345;DHT22;25061;51.954;6.996;2024-01-07T09:17:37;-0.40;99.90
39345;DHT22;25061;51.954;6.996;2024-01-07T09:20:09;-0.50;99.90
39345;DHT22;25061;51.954;6.996;2024-01-07T09:22:35;-0.50;99.90
39345;DHT22;25061;51.954;6.996;2024-01-07T09:25:02;-0.50;99.90
39345;DHT22;25061;51.954;6.996;2024-01-07T09:27:29;-0.50;99.90
39345;DHT22;25061;51.954;6.996;2024-01-07T09:29:55;-0.30;99.90
39345;DHT22;25061;51.954;6.996;2024-01-07T09:32:21;-0.10;99.90
39345;DHT22;25061;51.954;6.996;2024-01-07T09:34:47;-0.30;99.90
39345;DHT22;25061;51.954;6.996;2024-01-07T09:37:12;-0.40;99.90
39345;DHT22;25061;51.954;6.996;2024-01-07T09:39:41;-0.40;99.90
39345;DHT22;25061;51.954;6.996;2024-01-07T09:42:19;-0.50;99.90
39345;DHT22;25061;51.954;6.996;2024-01-07T09:44:45;-0.40;99.90
39345;DHT22;25061;51.954;6.996;2024-01-07T09:47:12;-0.40;99.90
39345;DHT22;25061;51.954;6.996;2024-01-07T09:49:39;-0.50;99.90
39345;DHT22;25061;51.954;6.996;2024-01-07T09:52:05;-0.40;99.90
39345;DHT22;25061;51.954;6.996;2024-01-07T09:54:36;-0.30;99.90
39345;DHT22;25061;51.954;6.996;2024-01-07T09:57:05;0.10;99.90
39345;DHT22;25061;51.954;6.996;2024-01-07T09:59:35;0.00;99.90
39345;DHT22;25061;51.954;6.996;2024-01-07T10:02:02;-0.10;99.90
39345;DHT22;25061;51.954;6.996;2024-01-07T10:04:28;-0.10;99.90
39345;DHT22;25061;51.954;6.996;2024-01-07T10:06:54;0.60;99.90
39345;DHT22;25061;51.954;6.996;2024-01-07T10:09:23;1.50;99.90
39345;DHT22;25061;51.954;6.996;2024-01-07T10:11:51;1.90;99.90
39345;DHT22;25061;51.954;6.996;2024-01-07T10:14:17;2.40;99.90
39345;DHT22;25061;51.954;6.996;2024-01-07T10:16:42;3.50;99.90
39345;DHT22;25061;51.954;6.996;2024-01-07T10:19:08;3.00;99.90
39345;DHT22;25061;51.954;6.996;2024-01-07T10:21:34;1.30;99.90
39345;DHT22;25061;51.954;6.996;2024-01-07T10:24:09;1.80;99.90
39345;DHT22;25061;51.954;6.996;2024-01-07T10:26:37;3.40;99.90
39345;DHT22;25061;51.954;6.996;2024-01-07T10:29:03;3.80;99.90
39345;DHT22;25061;51.954;6.996;2024-01-07T10:31:28;3.40;99.90
39345;DHT22;25061;51.954;6.996;2024-01-07T10:33:56;3.80;99.90
39345;DHT22;25061;51.954;6.996;2024-01-07T10:36:22;4.00;99.90
39345;DHT22;25061;51.954;6.996;2024-01-07T10:38:47;4.10;99.90
39345;DHT22;25061;51.954;6.996;2024-01-07T10:41:14;4.10;99.90
39345;DHT22;25061;51.954;6.996;2024-01-07T10:43:42;4.20;99.90
39345;DHT22;25061;51.954;6.996;2024-01-07T10:46:10;4.70;99.90
39345;DHT22;25061;51.954;6.996;2024-01-07T10:48:38;3.60;98.30
39345;DHT22;25061;51.954;6.996;2024-01-07T10:51:08;3.50;96.80
39345;DHT22;25061;51.954;6.996;2024-01-07T10:53:36;2.30;97.80
39345;DHT22;25061;51.954;6.996;2024-01-07T10:56:05;2.80;99.90
39345;DHT22;25061;51.954;6.996;2024-01-07T10:58:33;1.10;99.90
39345;DHT22;25061;51.954;6.996;2024-01-07T11:01:02;0.90;99.90
39345;DHT22;25061;51.954;6.996;2024-01-07T11:06:25;0.70;99.90
39345;DHT22;25061;51.954;6.996;2024-01-07T11:09:10;0.60;99.90
39345;DHT22;25061;51.954;6.996;2024-01-07T11:11:39;0.70;99.90
39345;DHT22;25061;51.954;6.996;2024-01-07T11:14:37;0.50;99.90
39345;DHT22;25061;51.954;6.996;2024-01-07T11:17:05;0.10;99.90
39345;DHT22;25061;51.954;6.996;2024-01-07T11:19:31;0.00;99.90
39345;DHT22;25061;51.954;6.996;2024-01-07T11:24:57;0.10;99.90
39345;DHT22;25061;51.954;6.996;2024-01-07T11:27:25;0.10;99.90
39345;DHT22;25061;51.954;6.996;2024-01-07T11:30:01;0.10;99.90
39345;DHT22;25061;51.954;6.996;2024-01-07T11:32:33;0.70;99.90
39345;DHT22;25061;51.954;6.996;2024-01-07T11:35:00;0.60;99.90
39345;DHT22;25061;51.954;6.996;2024-01-07T11:37:26;0.60;99.90
39345;DHT22;25061;51.954;6.996;2024-01-07T11:39:55;1.00;99.90
39345;DHT22;25061;51.954;6.996;2024-01-07T11:42:22;0.40;99.90
39345;DHT22;25061;51.954;6.996;2024-01-07T11:45:16;0.60;99.90
39345;DHT22;25061;51.954;6.996;2024-01-07T11:47:42;0.70;99.90
39345;DHT22;25061;51.954;6.996;2024-01-07T11:50:08;0.80;99.90
39345;DHT22;25061;51.954;6.996;2024-01-07T11:52:34;0.60;99.90
39345;DHT22;25061;51.954;6.996;2024-01-07T11:55:01;0.60;99.90
39345;DHT22;25061;51.954;6.996;2024-01-07T11:57:27;0.50;99.90
39345;DHT22;25061;51.954;6.996;2024-01-07T11:59:53;0.40;99.90
39345;DHT22;25061;51.954;6.996;2024-01-07T12:02:22;0.20;99.90
39345;DHT22;25061;51.954;6.996;2024-01-07T12:04:48;0.50;99.90
39345;DHT22;25061;51.954;6.996;2024-01-07T12:07:16;0.70;99.90
39345;DHT22;25061;51.954;6.996;2024-01-07T12:09:41;0.50;99.90
39345;DHT22;25061;51.954;6.996;2024-01-07T12:12:07;0.20;99.90
39345;DHT22;25061;51.954;6.996;2024-01-07T12:14:33;0.70;99.90
39345;DHT22;25061;51.954;6.996;2024-01-07T12:17:01;0.50;99.90
39345;DHT22;25061;51.954;6.996;2024-01-07T12:19:28;0.60;99.90
39345;DHT22;25061;51.954;6.996;2024-01-07T12:22:06;0.60;99.90
39345;DHT22;25061;51.954;6.996;2024-01-07T12:24:37;0.60;99.90
39345;DHT22;25061;51.954;6.996;2024-01-07T12:27:07;0.20;99.90
39345;DHT22;25061;51.954;6.996;2024-01-07T12:29:32;0.10;99.90
39345;DHT22;25061;51.954;6.996;2024-01-07T12:31:59;0.10;99.90
39345;DHT22;25061;51.954;6.996;2024-01-07T12:34:25;0.10;99.90
39345;DHT22;25061;51.954;6.996;2024-01-07T12:36:51;-0.10;99.90
39345;DHT22;25061;51.954;6.996;2024-01-07T12:39:17;-0.10;99.90
39345;DHT22;25061;51.954;6.996;2024-01-07T12:41:43;-0.10;99.90
39345;DHT22;25061;51.954;6.996;2024-01-07T12:44:09;0.00;99.90
39345;DHT22;25061;51.954;6.996;2024-01-07T12:46:35;-0.10;99.90
39345;DHT22;25061;51.954;6.996;2024-01-07T12:49:00;-0.10;99.90
39345;DHT22;25061;51.954;6.996;2024-01-07T12:51:28;-0.10;99.90
39345;DHT22;25061;51.954;6.996;2024-01-07T12:53:54;-0.10;99.90
39345;DHT22;25061;51.954;6.996;2024-01-07T12:56:22;0.00;99.90
39345;DHT22;25061;51.954;6.996;2024-01-07T12:58:47;-0.10;99.90
39345;DHT22;25061;51.954;6.996;2024-01-07T13:01:13;-0.10;99.90
39345;DHT22;25061;51.954;6.996;2024-01-07T13:03:39;-0.10;99.90
39345;DHT22;25061;51.954;6.996;2024-01-07T13:06:05;0.00;99.90
39345;DHT22;25061;51.954;6.996;2024-01-07T13:08:32;0.10;99.90
39345;DHT22;25061;51.954;6.996;2024-01-07T13:10:58;0.20;99.90
39345;DHT22;25061;51.954;6.996;2024-01-07T13:13:25;0.20;99.90
39345;DHT22;25061;51.954;6.996;2024-01-07T13:15:53;0.20;99.90
39345;DHT22;25061;51.954;6.996;2024-01-07T13:18:19;0.00;99.90
39345;DHT22;25061;51.954;6.996;2024-01-07T13:20:45;0.10;99.90
39345;DHT22;25061;51.954;6.996;2024-01-07T13:23:11;0.10;99.90
39345;DHT22;25061;51.954;6.996;2024-01-07T13:25:36;0.30;99.90
39345;DHT22;25061;51.954;6.996;2024-01-07T13:28:02;0.10;99.90
39345;DHT22;25061;51.954;6.996;2024-01-07T13:30:28;0.20;99.90
39345;DHT22;25061;51.954;6.996;2024-01-07T13:32:53;0.20;99.90
39345;DHT22;25061;51.954;6.996;2024-01-07T13:35:22;0.20;99.90
39345;DHT22;25061;51.954;6.996;2024-01-07T13:37:47;0.30;99.90
39345;DHT22;25061;51.954;6.996;2024-01-07T13:40:13;0.20;99.90
39345;DHT22;25061;51.954;6.996;2024-01-07T13:42:40;0.20;99.90
39345;DHT22;25061;51.954;6.996;2024-01-07T13:45:06;0.60;99.90
39345;DHT22;25061;51.954;6.996;2024-01-07T13:47:31;0.40;99.90
39345;DHT22;25061;51.954;6.996;2024-01-07T13:49:57;0.20;99.90
39345;DHT22;25061;51.954;6.996;2024-01-07T13:52:22;0.40;99.90
39345;DHT22;25061;51.954;6.996;2024-01-07T13:54:48;0.40;99.90
39345;DHT22;25061;51.954;6.996;2024-01-07T13:57:14;0.50;99.90
39345;DHT22;25061;51.954;6.996;2024-01-07T13:59:39;0.30;99.90
39345;DHT22;25061;51.954;6.996;2024-01-07T14:02:08;0.40;99.90
39345;DHT22;25061;51.954;6.996;2024-01-07T14:04:34;0.20;99.90
39345;DHT22;25061;51.954;6.996;2024-01-07T14:07:00;0.20;99.90
39345;DHT22;25061;51.954;6.996;2024-01-07T14:09:26;0.50;99.90
39345;DHT22;25061;51.954;6.996;2024-01-07T14:11:51;0.40;99.90
39345;DHT22;25061;51.954;6.996;2024-01-07T14:14:20;0.40;99.90
39345;DHT22;25061;51.954;6.996;2024-01-07T14:16:45;0.50;99.90
39345;DHT22;25061;51.954;6.996;2024-01-07T14:19:12;0.30;99.90
39345;DHT22;25061;51.954;6.996;2024-01-07T14:21:37;0.30;99.90
39345;DHT22;25061;51.954;6.996;2024-01-07T14:24:03;0.40;99.90
39345;DHT22;25061;51.954;6.996;2024-01-07T14:26:28;0.60;99.90
39345;DHT22;25061;51.954;6.996;2024-01-07T14:28:54;0.20;99.90
39345;DHT22;25061;51.954;6.996;2024-01-07T14:31:20;0.40;99.90
39345;DHT22;25061;51.954;6.996;2024-01-07T14:33:45;0.50;99.90
39345;DHT22;25061;51.954;6.996;2024-01-07T14:36:12;0.20;99.90
39345;DHT22;25061;51.954;6.996;2024-01-07T14:38:45;0.20;99.90
39345;DHT22;25061;51.954;6.996;2024-01-07T14:41:13;0.00;99.90
39345;DHT22;25061;51.954;6.996;2024-01-07T14:43:39;0.00;99.90
39345;DHT22;25061;51.954;6.996;2024-01-07T14:46:06;-0.10;99.90
39345;DHT22;25061;51.954;6.996;2024-01-07T14:48:33;0.10;99.90
39345;DHT22;25061;51.954;6.996;2024-01-07T14:50:59;-0.10;99.90
39345;DHT22;25061;51.954;6.996;2024-01-07T14:53:24;-0.10;99.90
39345;DHT22;25061;51.954;6.996;2024-01-07T14:55:50;-0.10;99.90
39345;DHT22;25061;51.954;6.996;2024-01-07T14:58:16;0.00;99.90
39345;DHT22;25061;51.954;6.996;2024-01-07T15:00:42;-0.10;99.90
39345;DHT22;25061;51.954;6.996;2024-01-07T15:03:07;-0.20;99.90
39345;DHT22;25061;51.954;6.996;2024-01-07T15:05:33;-0.20;99.90
39345;DHT22;25061;51.954;6.996;2024-01-07T15:08:00;-0.20;99.90
39345;DHT22;25061;51.954;6.996;2024-01-07T15:10:26;-0.20;99.90
39345;DHT22;25061;51.954;6.996;2024-01-07T15:12:51;-0.20;99.90
39345;DHT22;25061;51.954;6.996;2024-01-07T15:15:17;-0.30;99.90
39345;DHT22;25061;51.954;6.996;2024-01-07T15:17:44;-0.10;99.90
39345;DHT22;25061;51.954;6.996;2024-01-07T15:20:10;-0.10;99.90
39345;DHT22;25061;51.954;6.996;2024-01-07T15:22:36;-0.10;99.90
39345;DHT22;25061;51.954;6.996;2024-01-07T15:25:01;-0.20;99.90
39345;DHT22;25061;51.954;6.996;2024-01-07T15:27:27;-0.20;99.90
39345;DHT22;25061;51.954;6.996;2024-01-07T15:29:55;0.00;99.90
39345;DHT22;25061;51.954;6.996;2024-01-07T15:32:20;-0.10;99.90
39345;DHT22;25061;51.954;6.996;2024-01-07T15:34:46;-0.20;99.90
39345;DHT22;25061;51.954;6.996;2024-01-07T15:37:11;-0.20;99.90
39345;DHT22;25061;51.954;6.996;2024-01-07T15:39:37;-0.10;99.90
39345;DHT22;25061;51.954;6.996;2024-01-07T15:42:03;-0.10;99.90
39345;DHT22;25061;51.954;6.996;2024-01-07T15:44:28;-0.20;99.90
39345;DHT22;25061;51.954;6.996;2024-01-07T15:46:54;-0.10;99.90
39345;DHT22;25061;51.954;6.996;2024-01-07T15:49:20;-0.30;99.90
39345;DHT22;25061;51.954;6.996;2024-01-07T15:51:45;-0.40;99.90
39345;DHT22;25061;51.954;6.996;2024-01-07T15:54:11;-0.10;99.90
39345;DHT22;25061;51.954;6.996;2024-01-07T15:56:36;-0.20;99.90
39345;DHT22;25061;51.954;6.996;2024-01-07T15:59:02;-0.30;99.90
39345;DHT22;25061;51.954;6.996;2024-01-07T16:01:28;-0.40;99.90
39345;DHT22;25061;51.954;6.996;2024-01-07T16:03:54;-0.40;99.90
39345;DHT22;25061;51.954;6.996;2024-01-07T16:06:20;-0.50;99.90
39345;DHT22;25061;51.954;6.996;2024-01-07T16:08:45;-0.10;99.90
39345;DHT22;25061;51.954;6.996;2024-01-07T16:11:11;-0.30;99.90
39345;DHT22;25061;51.954;6.996;2024-01-07T16:13:41;-0.50;99.90
39345;DHT22;25061;51.954;6.996;2024-01-07T16:16:07;-0.50;99.90
39345;DHT22;25061;51.954;6.996;2024-01-07T16:18:32;-0.40;99.90
39345;DHT22;25061;51.954;6.996;2024-01-07T16:20:58;-0.40;99.90
39345;DHT22;25061;51.954;6.996;2024-01-07T16:23:24;-0.30;99.90
39345;DHT22;25061;51.954;6.996;2024-01-07T16:25:50;-0.30;99.90
39345;DHT22;25061;51.954;6.996;2024-01-07T16:28:16;-0.40;99.90
39345;DHT22;25061;51.954;6.996;2024-01-07T16:30:41;-0.30;99.90
39345;DHT22;25061;51.954;6.996;2024-01-07T16:33:07;-0.50;99.90
39345;DHT22;25061;51.954;6.996;2024-01-07T16:35:32;-0.60;99.90
39345;DHT22;25061;51.954;6.996;2024-01-07T16:38:02;-0.60;99.90
39345;DHT22;25061;51.954;6.996;2024-01-07T16:40:28;-0.60;99.90
39345;DHT22;25061;51.954;6.996;2024-01-07T16:42:54;-0.60;99.90
39345;DHT22;25061;51.954;6.996;2024-01-07T16:45:19;-0.60;99.90
39345;DHT22;25061;51.954;6.996;2024-01-07T16:47:45;-0.60;99.90
39345;DHT22;25061;51.954;6.996;2024-01-07T16:50:11;-0.40;99.90
39345;DHT22;25061;51.954;6.996;2024-01-07T16:52:36;-0.20;99.90
39345;DHT22;25061;51.954;6.996;2024-01-07T16:55:02;-0.50;99.90
39345;DHT22;25061;51.954;6.996;2024-01-07T16:57:28;-0.30;99.90
39345;DHT22;25061;51.954;6.996;2024-01-07T16:59:53;-0.20;99.90
39345;DHT22;25061;51.954;6.996;2024-01-07T17:02:19;-0.20;99.90
39345;DHT22;25061;51.954;6.996;2024-01-07T17:04:44;-0.10;99.90
39345;DHT22;25061;51.954;6.996;2024-01-07T17:07:10;-0.30;99.90
39345;DHT22;25061;51.954;6.996;2024-01-07T17:09:37;-0.40;99.90
39345;DHT22;25061;51.954;6.996;2024-01-07T17:12:02;-0.50;99.90
39345;DHT22;25061;51.954;6.996;2024-01-07T17:14:28;-0.10;99.90
39345;DHT22;25061;51.954;6.996;2024-01-07T17:16:54;-0.30;99.90
39345;DHT22;25061;51.954;6.996;2024-01-07T17:19:21;-0.40;99.90
39345;DHT22;25061;51.954;6.996;2024-01-07T17:21:47;-0.40;99.90
39345;DHT22;25061;51.954;6.996;2024-01-07T17:24:12;-0.40;99.90
39345;DHT22;25061;51.954;6.996;2024-01-07T17:26:38;-0.60;99.90
39345;DHT22;25061;51.954;6.996;2024-01-07T17:29:04;-0.60;99.90
39345;DHT22;25061;51.954;6.996;2024-01-07T17:31:29;-0.50;99.90
39345;DHT22;25061;51.954;6.996;2024-01-07T17:33:55;-0.50;99.90
39345;DHT22;25061;51.954;6.996;2024-01-07T17:36:20;-0.40;99.90
39345;DHT22;25061;51.954;6.996;2024-01-07T17:38:46;-0.40;99.90
39345;DHT22;25061;51.954;6.996;2024-01-07T17:41:12;-0.40;99.90
39345;DHT22;25061;51.954;6.996;2024-01-07T17:43:37;-0.20;99.90
39345;DHT22;25061;51.954;6.996;2024-01-07T17:46:09;-0.30;99.90
39345;DHT22;25061;51.954;6.996;2024-01-07T17:48:35;-0.10;99.90
39345;DHT22;25061;51.954;6.996;2024-01-07T17:51:01;0.20;99.90
39345;DHT22;25061;51.954;6.996;2024-01-07T17:53:30;-0.20;99.90
39345;DHT22;25061;51.954;6.996;2024-01-07T17:55:56;0.20;99.90
39345;DHT22;25061;51.954;6.996;2024-01-07T17:58:22;-0.20;99.90
39345;DHT22;25061;51.954;6.996;2024-01-07T18:00:48;-0.30;99.90
39345;DHT22;25061;51.954;6.996;2024-01-07T18:03:14;-0.40;99.90
39345;DHT22;25061;51.954;6.996;2024-01-07T18:05:39;-0.20;99.90
39345;DHT22;25061;51.954;6.996;2024-01-07T18:08:06;-0.50;99.90
39345;DHT22;25061;51.954;6.996;2024-01-07T18:10:31;-0.80;99.90
39345;DHT22;25061;51.954;6.996;2024-01-07T18:12:57;-0.40;99.90
39345;DHT22;25061;51.954;6.996;2024-01-07T18:15:23;-0.60;99.90
39345;DHT22;25061;51.954;6.996;2024-01-07T18:17:49;-0.80;99.90
39345;DHT22;25061;51.954;6.996;2024-01-07T18:20:15;-0.50;99.90
39345;DHT22;25061;51.954;6.996;2024-01-07T18:22:41;-0.50;99.90
39345;DHT22;25061;51.954;6.996;2024-01-07T18:25:07;-0.40;99.90
39345;DHT22;25061;51.954;6.996;2024-01-07T18:27:33;-0.40;99.90
39345;DHT22;25061;51.954;6.996;2024-01-07T18:29:59;-0.40;99.90
39345;DHT22;25061;51.954;6.996;2024-01-07T18:32:26;-0.50;99.90
39345;DHT22;25061;51.954;6.996;2024-01-07T18:34:51;-0.60;99.90
39345;DHT22;25061;51.954;6.996;2024-01-07T18:37:18;-0.90;99.90
39345;DHT22;25061;51.954;6.996;2024-01-07T18:39:47;-0.70;99.90
39345;DHT22;25061;51.954;6.996;2024-01-07T18:42:12;-0.80;99.90
39345;DHT22;25061;51.954;6.996;2024-01-07T18:44:38;-0.80;99.90
39345;DHT22;25061;51.954;6.996;2024-01-07T18:47:03;-0.90;99.90
39345;DHT22;25061;51.954;6.996;2024-01-07T18:49:29;-0.90;99.90
39345;DHT22;25061;51.954;6.996;2024-01-07T18:51:55;-1.10;99.90
39345;DHT22;25061;51.954;6.996;2024-01-07T18:54:21;-0.60;99.90
39345;DHT22;25061;51.954;6.996;2024-01-07T18:56:47;-0.90;99.90
39345;DHT22;25061;51.954;6.996;2024-01-07T18:59:14;-0.90;99.90
39345;DHT22;25061;51.954;6.996;2024-01-07T19:01:39;-0.70;99.90
39345;DHT22;25061;51.954;6.996;2024-01-07T19:04:05;-1.00;99.90
39345;DHT22;25061;51.954;6.996;2024-01-07T19:06:31;-1.20;99.90
39345;DHT22;25061;51.954;6.996;2024-01-07T19:08:57;-0.90;99.90
39345;DHT22;25061;51.954;6.996;2024-01-07T19:11:22;-0.80;99.90
39345;DHT22;25061;51.954;6.996;2024-01-07T19:13:48;-0.80;99.90
39345;DHT22;25061;51.954;6.996;2024-01-07T19:16:14;-1.00;99.90
39345;DHT22;25061;51.954;6.996;2024-01-07T19:18:41;-0.90;99.90
39345;DHT22;25061;51.954;6.996;2024-01-07T19:21:15;-0.80;99.90
39345;DHT22;25061;51.954;6.996;2024-01-07T19:23:42;-0.30;99.90
39345;DHT22;25061;51.954;6.996;2024-01-07T19:26:09;-0.40;99.90
39345;DHT22;25061;51.954;6.996;2024-01-07T19:28:36;-0.70;99.90
39345;DHT22;25061;51.954;6.996;2024-01-07T19:31:02;-0.80;99.90
39345;DHT22;25061;51.954;6.996;2024-01-07T19:33:29;-1.00;99.90
39345;DHT22;25061;51.954;6.996;2024-01-07T19:35:55;-0.70;99.90
39345;DHT22;25061;51.954;6.996;2024-01-07T19:38:21;-0.60;99.90
39345;DHT22;25061;51.954;6.996;2024-01-07T19:40:47;-0.70;99.90
39345;DHT22;25061;51.954;6.996;2024-01-07T19:43:12;-0.90;99.90
39345;DHT22;25061;51.954;6.996;2024-01-07T19:45:39;-0.80;99.90
39345;DHT22;25061;51.954;6.996;2024-01-07T19:48:06;-0.50;99.90
39345;DHT22;25061;51.954;6.996;2024-01-07T19:50:32;-0.60;99.90
39345;DHT22;25061;51.954;6.996;2024-01-07T19:52:57;-0.90;99.90
39345;DHT22;25061;51.954;6.996;2024-01-07T19:55:23;-1.00;99.90
39345;DHT22;25061;51.954;6.996;2024-01-07T19:57:48;-0.90;99.90
39345;DHT22;25061;51.954;6.996;2024-01-07T20:00:14;-0.50;99.90
39345;DHT22;25061;51.954;6.996;2024-01-07T20:02:40;-0.50;99.90
39345;DHT22;25061;51.954;6.996;2024-01-07T20:05:06;-0.80;99.90
39345;DHT22;25061;51.954;6.996;2024-01-07T20:07:32;-1.00;99.90
39345;DHT22;25061;51.954;6.996;2024-01-07T20:09:59;-0.90;99.90
39345;DHT22;25061;51.954;6.996;2024-01-07T20:12:24;-1.00;99.90
39345;DHT22;25061;51.954;6.996;2024-01-07T20:14:50;-0.60;99.90
39345;DHT22;25061;51.954;6.996;2024-01-07T20:17:16;-0.60;99.90
39345;DHT22;25061;51.954;6.996;2024-01-07T20:19:41;-0.30;99.90
39345;DHT22;25061;51.954;6.996;2024-01-07T20:22:09;-0.60;99.90
39345;DHT22;25061;51.954;6.996;2024-01-07T20:24:35;-0.40;99.90
39345;DHT22;25061;51.954;6.996;2024-01-07T20:27:02;-0.40;99.90
39345;DHT22;25061;51.954;6.996;2024-01-07T20:29:28;-0.70;99.90
39345;DHT22;25061;51.954;6.996;2024-01-07T20:31:53;-0.60;99.90
39345;DHT22;25061;51.954;6.996;2024-01-07T20:34:19;-0.50;99.90
39345;DHT22;25061;51.954;6.996;2024-01-07T20:36:45;-0.70;99.90
39345;DHT22;25061;51.954;6.996;2024-01-07T20:39:11;-0.40;99.90
39345;DHT22;25061;51.954;6.996;2024-01-07T20:41:37;-0.90;99.90
39345;DHT22;25061;51.954;6.996;2024-01-07T20:44:03;-0.70;99.90
39345;DHT22;25061;51.954;6.996;2024-01-07T20:46:30;-0.40;99.90
39345;DHT22;25061;51.954;6.996;2024-01-07T20:48:55;-0.40;99.90
39345;DHT22;25061;51.954;6.996;2024-01-07T20:51:21;-0.40;99.90
39345;DHT22;25061;51.954;6.996;2024-01-07T20:53:46;-0.80;99.90
39345;DHT22;25061;51.954;6.996;2024-01-07T20:56:12;-1.00;99.90
39345;DHT22;25061;51.954;6.996;2024-01-07T20:58:37;-1.20;99.90
39345;DHT22;25061;51.954;6.996;2024-01-07T21:01:03;-0.90;99.90
39345;DHT22;25061;51.954;6.996;2024-01-07T21:03:29;-0.80;99.90
39345;DHT22;25061;51.954;6.996;2024-01-07T21:05:55;-0.90;99.90
39345;DHT22;25061;51.954;6.996;2024-01-07T21:08:22;-0.90;99.90